Eminence, Mississippi
Current Conditions -  °F | °C
As of 12:35 PM on Thursday 27 Nov 2014 (Local Time) from KPIB Reporting Station
Clear Clear  
Wind Chill: 55°   Ceiling: Unl
Heat Index: 55°   Visibility: 10mi
Dew Point: 30°   Wind: 10mph
Humidity: 38%   Direction: 350°N
Pressure: 30.43"   Gusts: 17mph
Location:  31.5166°N, 89.4877°W
Report Text: KPIB 271835Z AUTO 35009G15KT 300V010 10SM CLR 13/M01 A3043 RMK AO1
Loading
Personal Weather Stations






























Interactive Weather Map New forecast layout! Learn more

10-Day Weather Forecast

Advertisements
Track Severe Weather on mobile